createdAt,value
2023-05-17T00:00:49.883Z,5.32
2023-05-17T00:03:21.136Z,5.55
2023-05-17T00:05:52.099Z,5.38
2023-05-17T00:08:26.100Z,6.60
2023-05-17T00:10:57.318Z,2.80
2023-05-17T00:13:28.387Z,4.03
2023-05-17T00:15:59.303Z,2.90
2023-05-17T00:18:30.424Z,2.83
2023-05-17T00:21:01.389Z,3.80
2023-05-17T00:23:34.965Z,5.47
2023-05-17T00:26:06.025Z,4.40
2023-05-17T00:28:37.084Z,6.10
2023-05-17T00:31:08.171Z,2.40
2023-05-17T00:33:39.081Z,4.50
2023-05-17T00:36:10.181Z,5.28
2023-05-17T00:38:43.831Z,6.05
2023-05-17T00:41:14.816Z,3.88
2023-05-17T00:43:45.852Z,3.13
2023-05-17T00:46:16.933Z,4.93
2023-05-17T00:48:48.157Z,5.20
2023-05-17T00:51:22.413Z,4.97
2023-05-17T00:53:56.109Z,5.07
2023-05-17T00:56:27.729Z,6.22
2023-05-17T00:58:58.764Z,4.38
2023-05-17T01:01:30.270Z,3.97
2023-05-17T01:04:01.365Z,6.93
2023-05-17T01:06:32.385Z,5.05
2023-05-17T01:09:06.482Z,3.88
2023-05-17T01:11:45.952Z,5.60
2023-05-17T01:14:27.888Z,6.25
2023-05-17T01:17:02.860Z,4.15
2023-05-17T01:19:55.986Z,3.13
2023-05-17T01:22:36.011Z,4.03
2023-05-17T01:25:40.744Z,3.13
2023-05-17T01:28:16.529Z,3.63
2023-05-17T01:30:50.571Z,3.15
2023-05-17T01:35:55.695Z,5.65
2023-05-17T01:38:26.836Z,8.95
2023-05-17T01:41:04.911Z,6.43
2023-05-17T01:43:44.965Z,9.15
2023-05-17T01:46:22.153Z,3.20
2023-05-17T01:49:09.971Z,3.20
2023-05-17T01:51:53.502Z,5.88
2023-05-17T01:54:32.734Z,5.60
2023-05-17T01:57:08.097Z,3.72
2023-05-17T01:59:44.199Z,3.90
2023-05-17T02:02:15.301Z,4.73
2023-05-17T02:04:46.257Z,8.80
2023-05-17T02:07:17.332Z,5.43
2023-05-17T02:09:48.271Z,4.55
2023-05-17T02:12:19.245Z,2.83
2023-05-17T02:14:52.997Z,2.97
2023-05-17T02:17:23.986Z,7.68
2023-05-17T02:19:55.141Z,4.63
2023-05-17T02:22:26.073Z,4.32
2023-05-17T02:24:57.016Z,3.33
2023-05-17T02:27:28.045Z,4.93
2023-05-17T02:30:02.421Z,6.75
2023-05-17T02:32:33.465Z,4.05
2023-05-17T02:35:05.032Z,3.80
2023-05-17T02:37:36.056Z,3.35
2023-05-17T02:40:09.805Z,3.63
2023-05-17T02:42:41.292Z,5.70
2023-05-17T02:45:15.441Z,4.68
2023-05-17T02:47:46.373Z,5.18
2023-05-17T02:50:17.955Z,2.60
2023-05-17T02:52:48.872Z,3.10
2023-05-17T02:55:20.135Z,5.25
2023-05-17T02:57:51.315Z,4.70
2023-05-17T03:00:25.280Z,4.18
2023-05-17T03:02:57.185Z,3.75
2023-05-17T03:05:28.873Z,3.08
2023-05-17T03:08:00.874Z,3.28
2023-05-17T03:10:32.427Z,2.97
2023-05-17T03:13:04.583Z,4.63
2023-05-17T03:15:42.201Z,2.75
2023-05-17T03:18:13.436Z,3.13
2023-05-17T03:20:44.888Z,6.05
2023-05-17T03:23:15.768Z,3.85
2023-05-17T03:25:55.662Z,8.43
2023-05-17T03:28:26.890Z,3.90
2023-05-17T03:31:00.613Z,4.78
2023-05-17T03:33:35.449Z,3.08
2023-05-17T03:36:08.093Z,4.72
2023-05-17T03:38:39.430Z,4.13
2023-05-17T03:41:10.709Z,3.45
2023-05-17T03:43:41.865Z,3.17
2023-05-17T03:46:18.152Z,3.25
2023-05-17T03:48:49.288Z,3.30
2023-05-17T03:51:21.552Z,3.28
2023-05-17T03:53:54.248Z,3.17
2023-05-17T03:56:27.637Z,3.03
2023-05-17T03:58:59.165Z,4.97
2023-05-17T04:01:33.453Z,3.83
2023-05-17T04:04:06.335Z,4.63
2023-05-17T04:06:37.389Z,3.10
2023-05-17T04:09:09.979Z,6.28
2023-05-17T04:11:41.477Z,2.30
2023-05-17T04:14:12.750Z,3.22
2023-05-17T04:16:46.413Z,3.97
2023-05-17T04:19:18.671Z,3.15
2023-05-17T04:21:52.364Z,6.07
2023-05-17T04:24:26.208Z,4.30
2023-05-17T04:26:57.464Z,5.75
2023-05-17T04:29:29.603Z,5.90
2023-05-17T04:32:03.622Z,5.93
2023-05-17T04:34:34.990Z,4.65
2023-05-17T04:37:09.475Z,4.78
2023-05-17T04:39:41.609Z,3.92
2023-05-17T04:42:13.070Z,8.65
2023-05-17T04:44:49.593Z,2.67
2023-05-17T04:47:23.337Z,5.25
2023-05-17T04:49:56.746Z,3.60
2023-05-17T04:52:29.159Z,5.50
2023-05-17T04:55:02.950Z,7.07
2023-05-17T04:57:34.440Z,4.68
2023-05-17T05:00:10.434Z,4.57
2023-05-17T05:02:47.043Z,6.78
2023-05-17T05:05:20.151Z,6.30
2023-05-17T05:07:51.276Z,3.78
2023-05-17T05:10:22.553Z,6.95
2023-05-17T05:12:53.619Z,8.23
2023-05-17T05:15:24.995Z,4.28
2023-05-17T05:18:03.156Z,3.00
2023-05-17T05:20:37.302Z,4.63
2023-05-17T05:23:12.210Z,5.15
2023-05-17T05:25:44.169Z,8.15
2023-05-17T05:28:16.582Z,5.35
2023-05-17T05:30:48.884Z,8.38
2023-05-17T05:33:22.833Z,3.08
2023-05-17T05:35:53.990Z,3.85
2023-05-17T05:38:25.243Z,6.53
2023-05-17T05:41:07.168Z,3.00
2023-05-17T05:43:41.128Z,7.40
2023-05-17T05:46:13.094Z,4.30
2023-05-17T05:48:50.401Z,11.25
2023-05-17T05:51:22.865Z,10.02
2023-05-17T05:53:59.275Z,8.05
2023-05-17T05:56:32.012Z,9.07
2023-05-17T05:59:03.432Z,6.85
2023-05-17T06:01:35.137Z,9.43
2023-05-17T06:04:12.567Z,7.28
2023-05-17T06:06:44.172Z,6.63
2023-05-17T06:09:15.857Z,9.38
2023-05-17T06:11:47.601Z,7.97
2023-05-17T06:14:19.931Z,9.75
2023-05-17T06:16:52.340Z,5.95
2023-05-17T06:19:27.777Z,9.43
2023-05-17T06:22:01.086Z,8.40
2023-05-17T06:24:36.049Z,6.68
2023-05-17T06:27:11.565Z,9.80
2023-05-17T06:29:44.980Z,7.53
2023-05-17T06:32:21.960Z,4.47
2023-05-17T06:34:55.813Z,5.32
2023-05-17T06:37:28.363Z,6.72
2023-05-17T06:40:15.988Z,9.77
2023-05-17T06:42:49.703Z,7.78
2023-05-17T06:45:22.128Z,7.00
2023-05-17T06:47:54.662Z,6.60
2023-05-17T06:50:29.709Z,6.75
2023-05-17T06:53:02.753Z,12.45
2023-05-17T06:55:34.933Z,6.57
2023-05-17T06:58:06.502Z,8.32
2023-05-17T07:00:38.620Z,7.20
2023-05-17T07:03:11.792Z,7.97
2023-05-17T07:05:45.647Z,15.23
2023-05-17T07:08:16.929Z,11.82
2023-05-17T07:10:47.972Z,7.88
2023-05-17T07:13:19.292Z,7.07
2023-05-17T07:15:50.443Z,6.97
2023-05-17T07:18:21.730Z,8.95
2023-05-17T07:20:56.598Z,6.53
2023-05-17T07:23:28.121Z,10.77
2023-05-17T07:25:59.222Z,7.05
2023-05-17T07:28:30.396Z,8.40
2023-05-17T07:31:02.147Z,7.28
2023-05-17T07:33:34.193Z,9.68
2023-05-17T07:36:10.635Z,9.80
2023-05-17T07:38:41.616Z,5.40
2023-05-17T07:41:17.295Z,9.70
2023-05-17T07:43:48.402Z,8.60
2023-05-17T07:46:19.733Z,12.15
2023-05-17T07:48:55.851Z,10.18
2023-05-17T07:51:32.892Z,6.28
2023-05-17T07:54:04.863Z,9.27
2023-05-17T07:56:36.564Z,11.98
2023-05-17T07:59:08.047Z,7.55
2023-05-17T08:01:39.801Z,7.90
2023-05-17T08:04:10.834Z,10.40
2023-05-17T08:06:46.036Z,9.68
2023-05-17T08:09:19.090Z,8.98
2023-05-17T08:11:54.680Z,8.73
2023-05-17T08:14:27.548Z,8.75
2023-05-17T08:16:58.588Z,9.88
2023-05-17T08:19:29.801Z,7.38
2023-05-17T08:22:04.089Z,6.40
2023-05-17T08:24:35.086Z,10.48
2023-05-17T08:27:07.543Z,10.70
2023-05-17T08:29:39.763Z,9.63
2023-05-17T08:32:13.431Z,10.93
2023-05-17T08:34:44.947Z,9.73
2023-05-17T08:37:18.678Z,6.93
2023-05-17T08:39:52.163Z,10.57
2023-05-17T08:42:30.363Z,9.25
2023-05-17T08:45:03.770Z,7.60
2023-05-17T08:47:38.128Z,8.80
2023-05-17T08:50:10.118Z,7.55
2023-05-17T08:52:44.969Z,9.10
2023-05-17T08:55:16.864Z,5.65
2023-05-17T08:57:49.918Z,12.27
2023-05-17T09:00:28.737Z,7.32
2023-05-17T09:03:00.022Z,9.13
2023-05-17T09:05:31.988Z,6.53
2023-05-17T09:08:06.491Z,8.63
2023-05-17T09:10:38.012Z,9.32
2023-05-17T09:13:09.637Z,11.50
2023-05-17T09:15:40.721Z,8.27
2023-05-17T09:18:17.850Z,10.70
2023-05-17T09:20:54.731Z,9.98
2023-05-17T09:23:28.630Z,10.15
2023-05-17T09:26:06.921Z,7.72
2023-05-17T09:28:43.900Z,9.15
2023-05-17T09:33:48.296Z,10.10
2023-05-17T09:36:21.184Z,10.93
2023-05-17T09:39:02.620Z,9.52
2023-05-17T09:41:35.347Z,8.95
2023-05-17T09:44:12.894Z,7.75
2023-05-17T09:46:47.897Z,5.93
2023-05-17T09:49:21.871Z,6.35
2023-05-17T09:51:53.287Z,6.68
2023-05-17T09:54:29.973Z,8.30
2023-05-17T09:57:08.071Z,9.15
2023-05-17T09:59:39.811Z,6.63
2023-05-17T10:02:21.703Z,10.23
2023-05-17T10:04:54.309Z,9.95
2023-05-17T10:07:28.835Z,7.80
2023-05-17T10:10:03.810Z,8.60
2023-05-17T10:12:40.901Z,8.95
2023-05-17T10:15:16.637Z,7.75
2023-05-17T10:17:49.249Z,11.65
2023-05-17T10:20:24.534Z,10.13
2023-05-17T10:23:00.024Z,9.90
2023-05-17T10:25:35.881Z,9.07
2023-05-17T10:28:10.111Z,7.32
2023-05-17T10:30:43.223Z,9.60
2023-05-17T10:33:20.408Z,11.00
2023-05-17T10:35:54.013Z,9.25
2023-05-17T10:38:31.980Z,7.72
2023-05-17T10:41:13.996Z,10.23
2023-05-17T10:43:48.934Z,8.48
2023-05-17T10:46:22.963Z,7.50
2023-05-17T10:48:55.494Z,5.15
2023-05-17T10:51:31.919Z,8.52
2023-05-17T10:54:13.403Z,5.28
2023-05-17T10:56:52.660Z,7.82
2023-05-17T10:59:28.463Z,7.00
2023-05-17T11:02:04.829Z,7.60
2023-05-17T11:07:29.872Z,7.97
2023-05-17T11:10:09.096Z,6.22
2023-05-17T11:12:44.494Z,7.60
2023-05-17T11:15:17.281Z,6.50
2023-05-17T11:17:54.479Z,6.00
2023-05-17T11:20:37.698Z,6.22
2023-05-17T11:23:10.791Z,4.03
2023-05-17T11:25:43.177Z,5.63
2023-05-17T11:28:22.814Z,6.35
2023-05-17T11:30:54.348Z,5.38
2023-05-17T11:33:42.445Z,4.30
2023-05-17T11:36:21.961Z,4.55
2023-05-17T11:39:01.477Z,3.03
2023-05-17T11:41:42.299Z,5.50
2023-05-17T11:44:17.255Z,4.53
2023-05-17T11:46:48.952Z,5.07
2023-05-17T11:49:34.067Z,3.38
2023-05-17T11:52:06.795Z,4.03
2023-05-17T11:54:38.926Z,3.53
2023-05-17T11:57:12.068Z,3.55
2023-05-17T11:59:46.158Z,4.43
2023-05-17T12:02:31.587Z,2.72
2023-05-17T12:05:03.348Z,3.08
2023-05-17T12:07:34.805Z,4.82
2023-05-17T12:10:06.880Z,3.30
2023-05-17T12:12:38.277Z,5.13
2023-05-17T12:15:12.895Z,4.93
2023-05-17T12:17:50.772Z,3.20
2023-05-17T12:20:22.754Z,3.67
2023-05-17T12:22:57.926Z,5.30
2023-05-17T12:25:29.989Z,6.03
2023-05-17T12:28:22.799Z,2.55
2023-05-17T12:31:03.582Z,3.15
2023-05-17T12:33:37.098Z,4.90
2023-05-17T12:36:08.953Z,3.97
2023-05-17T12:38:40.766Z,3.35
2023-05-17T12:41:15.205Z,4.18
2023-05-17T12:43:48.561Z,3.20
2023-05-17T12:46:25.611Z,4.43
2023-05-17T12:48:57.855Z,4.47
2023-05-17T12:51:28.825Z,2.90
2023-05-17T12:54:02.698Z,5.22
2023-05-17T12:56:34.029Z,3.45
2023-05-17T12:59:08.796Z,4.93
2023-05-17T13:01:45.247Z,3.13
2023-05-17T13:04:17.584Z,5.57
2023-05-17T13:06:50.150Z,3.42
2023-05-17T13:09:22.262Z,3.80
2023-05-17T13:11:57.291Z,3.83
2023-05-17T13:14:45.294Z,3.83
2023-05-17T13:17:21.665Z,3.50
2023-05-17T13:19:53.149Z,5.40
2023-05-17T13:22:25.611Z,2.45
2023-05-17T13:24:57.100Z,3.85
2023-05-17T13:27:27.954Z,4.32
2023-05-17T13:29:58.814Z,4.88
2023-05-17T13:32:32.729Z,4.43
2023-05-17T13:35:04.099Z,5.45
2023-05-17T13:37:34.909Z,4.40
2023-05-17T13:40:05.980Z,4.18
2023-05-17T13:42:36.996Z,3.95
2023-05-17T13:45:09.557Z,4.32
2023-05-17T13:47:43.168Z,3.05
2023-05-17T13:50:17.606Z,5.47
2023-05-17T13:52:48.556Z,4.30
2023-05-17T13:55:19.421Z,3.63
2023-05-17T13:57:50.314Z,4.43
2023-05-17T14:00:22.073Z,3.13
2023-05-17T14:02:55.691Z,4.05
2023-05-17T14:05:27.130Z,3.80
2023-05-17T14:07:58.044Z,3.50
2023-05-17T14:10:29.171Z,4.10
2023-05-17T14:13:00.326Z,3.03
2023-05-17T14:15:31.411Z,5.60
2023-05-17T14:18:05.119Z,3.70
2023-05-17T14:20:36.250Z,5.30
2023-05-17T14:23:07.285Z,6.03
2023-05-17T14:25:38.231Z,5.55
2023-05-17T14:28:09.415Z,6.63
2023-05-17T14:30:40.295Z,4.18
2023-05-17T14:33:14.164Z,4.55
2023-05-17T14:35:45.230Z,5.65
2023-05-17T14:38:16.351Z,6.18
2023-05-17T14:40:47.233Z,3.15
2023-05-17T14:43:18.194Z,5.07
2023-05-17T14:45:49.222Z,3.30
2023-05-17T14:48:23.220Z,6.72
2023-05-17T14:50:54.529Z,3.60
2023-05-17T14:53:29.413Z,4.93
2023-05-17T14:56:00.474Z,4.13
2023-05-17T14:58:31.691Z,3.30
2023-05-17T15:01:05.684Z,4.38
2023-05-17T15:03:41.555Z,2.95
2023-05-17T15:06:13.280Z,3.85
2023-05-17T15:08:44.289Z,3.03
2023-05-17T15:11:15.389Z,4.20
2023-05-17T15:13:46.338Z,4.45
2023-05-17T15:16:17.245Z,4.25
2023-05-17T15:18:51.021Z,3.92
2023-05-17T15:21:22.179Z,3.92
2023-05-17T15:23:53.280Z,4.05
2023-05-17T15:26:24.660Z,3.17
2023-05-17T15:28:55.520Z,4.30
2023-05-17T15:31:28.874Z,3.47
2023-05-17T15:34:03.452Z,3.65
2023-05-17T15:36:34.929Z,3.05
2023-05-17T15:39:05.868Z,3.75
2023-05-17T15:41:37.722Z,3.28
2023-05-17T15:44:09.477Z,4.10
2023-05-17T15:46:40.363Z,3.40
2023-05-17T15:49:14.029Z,3.88
2023-05-17T15:51:44.973Z,3.50
2023-05-17T15:54:15.995Z,4.82
2023-05-17T15:56:46.980Z,2.88
2023-05-17T15:59:18.030Z,3.15
2023-05-17T16:01:49.649Z,4.70
2023-05-17T16:04:23.210Z,3.47
2023-05-17T16:06:54.332Z,3.80
2023-05-17T16:09:25.304Z,3.28
2023-05-17T16:11:56.521Z,3.90
2023-05-17T16:14:27.499Z,4.18
2023-05-17T16:16:58.394Z,3.58
2023-05-17T16:19:34.550Z,3.67
2023-05-17T16:22:05.798Z,2.45
2023-05-17T16:24:38.081Z,3.08
2023-05-17T16:27:09.217Z,4.13
2023-05-17T16:29:40.638Z,3.58
2023-05-17T16:32:11.601Z,3.15
2023-05-17T16:34:45.167Z,3.50
2023-05-17T16:37:16.165Z,2.40
2023-05-17T16:39:47.108Z,4.40
2023-05-17T16:42:18.243Z,3.42
2023-05-17T16:44:49.100Z,3.60
2023-05-17T16:47:24.003Z,3.28
2023-05-17T16:49:58.092Z,3.28
2023-05-17T16:52:30.491Z,4.40
2023-05-17T16:55:03.648Z,3.42
2023-05-17T16:57:36.365Z,3.92
2023-05-17T17:00:09.184Z,4.22
2023-05-17T17:02:40.202Z,3.60
2023-05-17T17:05:13.929Z,4.22
2023-05-17T17:07:46.253Z,3.78
2023-05-17T17:10:17.318Z,3.10
2023-05-17T17:12:48.476Z,5.35
2023-05-17T17:15:19.692Z,3.72
2023-05-17T17:17:51.264Z,5.57
2023-05-17T17:20:25.371Z,5.03
2023-05-17T17:23:03.044Z,4.70
2023-05-17T17:25:39.645Z,5.43
2023-05-17T17:28:12.063Z,7.88
2023-05-17T17:30:52.635Z,5.50
2023-05-17T17:33:24.095Z,5.40
2023-05-17T17:36:01.785Z,5.88
2023-05-17T17:38:34.589Z,6.50
2023-05-17T17:41:09.069Z,4.75
2023-05-17T17:43:43.888Z,6.03
2023-05-17T17:46:32.170Z,5.13
2023-05-17T17:49:05.507Z,5.13
2023-05-17T17:51:39.976Z,6.35
2023-05-17T17:54:14.219Z,5.93
2023-05-17T17:57:04.885Z,7.13
2023-05-17T17:59:36.769Z,7.07
2023-05-17T18:02:08.949Z,7.35
2023-05-17T18:04:40.872Z,4.55
2023-05-17T18:07:17.462Z,4.70
2023-05-17T18:09:48.367Z,7.78
2023-05-17T18:12:27.544Z,7.63
2023-05-17T18:15:08.230Z,5.90
2023-05-17T18:17:41.002Z,6.57
2023-05-17T18:20:13.042Z,5.55
2023-05-17T18:22:47.771Z,6.00
2023-05-17T18:25:18.860Z,9.90
2023-05-17T18:27:49.829Z,6.82
2023-05-17T18:30:21.520Z,5.93
2023-05-17T18:32:52.627Z,5.82
2023-05-17T18:35:23.645Z,7.75
2023-05-17T18:37:57.802Z,9.60
2023-05-17T18:40:29.611Z,8.77
2023-05-17T18:43:00.796Z,6.05
2023-05-17T18:45:32.306Z,8.15
2023-05-17T18:48:03.418Z,7.32
2023-05-17T18:50:34.856Z,9.13
2023-05-17T18:53:08.441Z,7.75
2023-05-17T18:55:39.451Z,6.88
2023-05-17T18:58:10.542Z,7.03
2023-05-17T19:00:41.772Z,6.50
2023-05-17T19:03:12.769Z,7.28
2023-05-17T19:05:44.044Z,5.55
2023-05-17T19:08:17.796Z,8.85
2023-05-17T19:10:49.004Z,5.63
2023-05-17T19:13:20.072Z,7.25
2023-05-17T19:15:53.470Z,6.35
2023-05-17T19:18:24.728Z,8.25
2023-05-17T19:20:55.792Z,8.93
2023-05-17T19:23:29.358Z,9.63
2023-05-17T19:26:02.731Z,9.48
2023-05-17T19:28:36.105Z,5.35
2023-05-17T19:31:08.566Z,6.97
2023-05-17T19:33:40.511Z,8.15
2023-05-17T19:36:25.864Z,6.88
2023-05-17T19:39:01.438Z,9.88
2023-05-17T19:41:32.575Z,6.90
2023-05-17T19:44:04.784Z,7.93
2023-05-17T19:46:36.502Z,7.97
2023-05-17T19:49:08.025Z,8.15
2023-05-17T19:51:38.952Z,7.18
2023-05-17T19:54:12.701Z,7.80
2023-05-17T19:56:43.798Z,7.90
2023-05-17T19:59:14.822Z,8.18
2023-05-17T20:01:47.343Z,6.78
2023-05-17T20:04:18.898Z,6.95
2023-05-17T20:06:50.038Z,6.97
2023-05-17T20:09:26.944Z,11.55
2023-05-17T20:11:58.812Z,6.63
2023-05-17T20:14:30.739Z,8.18
2023-05-17T20:17:02.451Z,7.32
2023-05-17T20:19:33.670Z,6.13
2023-05-17T20:22:05.128Z,8.82
2023-05-17T20:24:39.683Z,9.75
2023-05-17T20:27:11.318Z,6.82
2023-05-17T20:29:42.813Z,9.45
2023-05-17T20:32:14.898Z,11.35
2023-05-17T20:34:46.763Z,7.47
2023-05-17T20:37:18.923Z,8.77
2023-05-17T20:39:53.982Z,9.98
2023-05-17T20:42:25.833Z,8.80
2023-05-17T20:44:58.038Z,6.82
2023-05-17T20:47:29.454Z,6.95
2023-05-17T20:50:00.522Z,8.20
2023-05-17T20:52:39.362Z,9.85
2023-05-17T20:55:14.154Z,8.20
2023-05-17T20:57:45.005Z,8.90
2023-05-17T21:00:18.393Z,10.02
2023-05-17T21:02:49.498Z,11.55
2023-05-17T21:05:20.466Z,12.25
2023-05-17T21:07:51.383Z,10.18
2023-05-17T21:10:25.130Z,10.13
2023-05-17T21:12:56.296Z,12.68
2023-05-17T21:15:27.741Z,9.45
2023-05-17T21:18:00.420Z,9.30
2023-05-17T21:20:31.737Z,10.23
2023-05-17T21:23:02.604Z,11.15
2023-05-17T21:25:37.960Z,11.02
2023-05-17T21:28:10.762Z,8.80
2023-05-17T21:30:41.813Z,10.77
2023-05-17T21:33:12.966Z,9.85
2023-05-17T21:35:43.906Z,11.13
2023-05-17T21:38:14.898Z,9.73
2023-05-17T21:40:48.627Z,10.85
2023-05-17T21:43:22.587Z,6.80
2023-05-17T21:45:53.530Z,11.90
2023-05-17T21:48:24.471Z,13.85
2023-05-17T21:50:55.569Z,8.55
2023-05-17T21:53:26.550Z,11.25
2023-05-17T21:56:02.931Z,7.88
2023-05-17T21:58:34.759Z,10.10
2023-05-17T22:01:06.471Z,11.95
2023-05-17T22:03:37.797Z,7.70
2023-05-17T22:06:09.432Z,9.70
2023-05-17T22:08:42.572Z,8.88
2023-05-17T22:11:18.487Z,11.63
2023-05-17T22:13:49.441Z,9.73
2023-05-17T22:16:22.742Z,10.57
2023-05-17T22:18:54.349Z,13.98
2023-05-17T22:21:25.423Z,9.07
2023-05-17T22:23:56.430Z,9.45
2023-05-17T22:26:31.107Z,9.90
2023-05-17T22:29:02.538Z,8.32
2023-05-17T22:31:38.069Z,12.18
2023-05-17T22:34:09.017Z,11.82
2023-05-17T22:36:42.557Z,9.57
2023-05-17T22:39:13.480Z,11.23
2023-05-17T22:41:47.655Z,8.45
2023-05-17T22:44:19.954Z,10.40
2023-05-17T22:46:54.139Z,10.13
2023-05-17T22:49:26.275Z,12.02
2023-05-17T22:51:58.862Z,13.85
2023-05-17T22:54:29.912Z,10.75
2023-05-17T22:57:04.954Z,10.55
2023-05-17T22:59:36.913Z,10.43
2023-05-17T23:02:08.558Z,10.63
2023-05-17T23:04:40.597Z,10.75
2023-05-17T23:07:11.545Z,9.63
2023-05-17T23:09:42.802Z,13.00
2023-05-17T23:12:17.711Z,8.57
2023-05-17T23:14:48.718Z,7.47
2023-05-17T23:17:19.619Z,11.45
2023-05-17T23:19:51.196Z,8.63
2023-05-17T23:22:22.143Z,13.27
2023-05-17T23:24:54.445Z,8.10
2023-05-17T23:27:28.129Z,10.88
2023-05-17T23:29:59.114Z,9.20
2023-05-17T23:32:32.857Z,11.65
2023-05-17T23:35:05.155Z,12.38
2023-05-17T23:37:37.946Z,11.55
2023-05-17T23:40:10.694Z,12.40
2023-05-17T23:42:44.460Z,13.23
2023-05-17T23:45:16.760Z,13.98
2023-05-17T23:47:47.970Z,11.63
2023-05-17T23:50:19.040Z,14.55
2023-05-17T23:52:49.993Z,13.88
2023-05-17T23:55:22.406Z,13.90
2023-05-17T23:57:56.383Z,12.07
